Time;durP1;ratioP1;P1;durP2;ratioP2;P2;SDS_P1;SDS_P2;PMS_P1;PMS_P2;Temp;Humidity;BMP_temperature;BMP_pressure;BME280_temperature;BME280_humidity;BME280_pressure;Samples;Min_cycle;Max_cycle;Signal;HPM_P1;HPM_P2
2024/03/02 00:00:30;;;;;;;22.20;12.77;;;;;;;4.58;100.00;95141.97;1042022;28;20102;-63
2024/03/02 00:01:00;;;;;;;21.27;13.05;;;;;;;4.59;100.00;95151.34;1042530;28;20653;-66
2024/03/02 00:01:31;;;;;;;20.38;12.88;;;;;;;4.57;100.00;95145.59;1041666;28;20032;-66
2024/03/02 00:02:01;;;;;;;25.73;13.88;;;;;;;4.60;100.00;95148.50;1042937;28;20041;-65
2024/03/02 00:02:31;;;;;;;25.35;13.88;;;;;;;4.61;100.00;95142.28;1042656;28;20024;-66
2024/03/02 00:03:02;;;;;;;21.70;13.30;;;;;;;4.60;100.00;95143.31;1042980;28;20400;-66
2024/03/02 00:03:33;;;;;;;21.55;13.13;;;;;;;4.59;100.00;95149.53;1042718;28;20040;-65
2024/03/02 00:04:06;;;;;;;22.50;12.52;;;;;;;4.45;100.00;95125.69;1042938;28;20037;-66
2024/03/02 00:04:37;;;;;;;23.50;13.15;;;;;;;4.59;100.00;95154.72;1038509;28;20021;-65
2024/03/02 00:05:08;;;;;;;22.02;13.57;;;;;;;4.57;100.00;95143.78;1034835;28;20265;-66
2024/03/02 00:05:38;;;;;;;22.65;13.65;;;;;;;4.58;100.00;95139.38;1028455;28;20039;-66
2024/03/02 00:06:09;;;;;;;24.38;13.60;;;;;;;4.57;100.00;95145.59;1034708;28;20694;-64
2024/03/02 00:06:39;;;;;;;24.80;13.85;;;;;;;4.54;100.00;95133.09;1039064;28;20129;-67
2024/03/02 00:07:09;;;;;;;27.05;14.20;;;;;;;4.56;100.00;95137.03;1042802;28;20104;-65
2024/03/02 00:07:41;;;;;;;28.30;13.93;;;;;;;4.55;100.00;95145.06;1038763;28;20053;-65
2024/03/02 00:08:11;;;;;;;25.15;14.68;;;;;;;4.57;100.00;95148.22;1042675;28;20083;-64
2024/03/02 00:08:42;;;;;;;27.20;13.95;;;;;;;4.53;100.00;95140.09;1038610;28;20092;-66
2024/03/02 00:09:12;;;;;;;26.00;13.68;;;;;;;4.55;100.00;95139.84;1034728;28;20034;-65
2024/03/02 00:09:43;;;;;;;25.13;14.07;;;;;;;4.54;100.00;95143.50;1034565;28;20068;-66
2024/03/02 00:10:18;;;;;;;27.77;14.05;;;;;;;4.54;100.00;95133.09;1033294;28;20029;-66
2024/03/02 00:10:49;;;;;;;24.17;13.13;;;;;;;4.53;100.00;95139.28;1037943;28;20048;-65
2024/03/02 00:11:19;;;;;;;23.35;13.35;;;;;;;4.53;100.00;95139.28;1040392;28;20474;-66
2024/03/02 00:11:50;;;;;;;24.45;13.30;;;;;;;4.53;100.00;95141.91;1043021;28;20586;-66
2024/03/02 00:12:21;;;;;;;23.02;14.07;;;;;;;4.51;100.00;95139.56;1039109;28;20033;-65
2024/03/02 00:12:51;;;;;;;27.38;14.70;;;;;;;4.51;100.00;95142.16;1042659;28;20563;-66
2024/03/02 00:13:25;;;;;;;24.30;13.05;;;;;;;4.53;100.00;95139.28;1038980;28;20033;-66
2024/03/02 00:13:55;;;;;;;25.30;13.57;;;;;;;4.51;100.00;95141.38;1039096;28;20378;-67
2024/03/02 00:14:28;;;;;;;24.50;14.60;;;;;;;4.51;100.00;95139.56;1042841;28;20282;-65
2024/03/02 00:15:02;;;;;;;23.10;12.93;;;;;;;4.48;100.00;95135.59;1038984;28;20033;-65
2024/03/02 00:15:45;;;;;;;23.58;13.65;;;;;;;4.49;100.00;95133.78;1042078;28;20268;-65
2024/03/02 00:16:18;;;;;;;24.75;14.48;;;;;;;4.46;100.00;95135.06;1039727;28;20357;-66
2024/03/02 00:16:48;;;;;;;24.95;13.82;;;;;;;4.45;100.00;95133.50;1041547;28;20624;-63
2024/03/02 00:17:24;;;;;;;24.58;13.77;;;;;;;4.44;100.00;95134.53;1042850;28;20259;-65
2024/03/02 00:17:55;;;;;;;22.92;14.63;;;;;;;4.47;100.00;95138.47;1034568;28;20103;-66
2024/03/02 00:18:27;;;;;;;25.23;15.43;;;;;;;4.46;100.00;95137.69;1039447;28;20041;-65
2024/03/02 00:19:05;;;;;;;25.10;15.57;;;;;;;4.48;100.00;95140.03;1037946;28;20335;-65
2024/03/02 00:19:39;;;;;;;29.02;15.25;;;;;;;4.46;100.00;95135.06;1034205;28;20160;-66
2024/03/02 00:20:10;;;;;;;28.55;16.02;;;;;;;4.44;100.00;95139.72;1030752;28;20027;-66
2024/03/02 00:20:40;;;;;;;29.02;17.10;;;;;;;4.44;100.00;95138.94;1034050;28;20265;-66
2024/03/02 00:21:11;;;;;;;30.10;16.95;;;;;;;4.43;100.00;95135.56;1038513;28;20441;-65
2024/03/02 00:21:41;;;;;;;31.63;17.88;;;;;;;4.42;100.00;95140.97;1038753;28;20037;-64
2024/03/02 00:22:12;;;;;;;31.88;17.25;;;;;;;4.42;100.00;95138.38;1038811;28;20029;-65
2024/03/02 00:22:42;;;;;;;28.25;17.10;;;;;;;4.41;100.00;95142.78;1042791;28;20021;-65
2024/03/02 00:23:15;;;;;;;28.85;16.58;;;;;;;4.42;100.00;95144.34;1042648;28;20017;-65
2024/03/02 00:23:45;;;;;;;36.53;16.92;;;;;;;4.41;100.00;95137.59;1039765;28;20021;-67
2024/03/02 00:24:35;;;;;;;28.15;16.83;;;;;;;4.41;100.00;95136.81;1039884;28;20056;-66
2024/03/02 00:25:08;;;;;;;26.58;14.40;;;;;;;4.41;100.00;95140.19;1040305;28;20116;-66
2024/03/02 00:25:47;;;;;;;25.45;15.02;;;;;;;4.40;100.00;95137.84;1040962;28;20057;-66
2024/03/02 00:26:17;;;;;;;30.50;15.38;;;;;;;4.40;100.00;95143.03;1040628;28;20260;-66
2024/03/02 00:26:48;;;;;;;28.52;15.85;;;;;;;4.40;100.00;95149.00;1038920;28;20323;-67
2024/03/02 00:27:18;;;;;;;28.52;16.10;;;;;;;4.39;100.00;95138.84;1038615;28;20084;-65
2024/03/02 00:27:49;;;;;;;27.83;15.32;;;;;;;4.40;100.00;95143.03;1030482;28;20029;-66
2024/03/02 00:28:27;;;;;;;25.77;15.75;;;;;;;4.40;100.00;95145.63;1030682;28;20556;-65
2024/03/02 00:28:57;;;;;;;28.35;15.18;;;;;;;4.37;100.00;95144.28;1034614;28;20021;-67
2024/03/02 00:29:28;;;;;;;23.83;14.60;;;;;;;4.36;100.00;95142.72;1031588;28;20296;-67
2024/03/02 00:30:00;;;;;;;23.85;14.95;;;;;;;4.37;100.00;95139.09;1026595;28;20014;-65
2024/03/02 00:30:31;;;;;;;30.55;15.40;;;;;;;4.37;100.00;95139.09;1022299;28;20098;-64
2024/03/02 00:31:02;;;;;;;27.83;15.20;;;;;;;4.36;100.00;95139.31;1027385;28;20773;-65
2024/03/02 00:31:33;;;;;;;26.83;14.77;;;;;;;4.35;100.00;95141.13;1031147;28;20026;-66
2024/03/02 00:32:03;;;;;;;28.55;15.40;;;;;;;4.35;100.00;95146.31;1038864;28;20041;-66
2024/03/02 00:32:34;;;;;;;26.20;15.27;;;;;;;4.33;100.00;95135.41;1034310;28;20025;-66
2024/03/02 00:33:07;;;;;;;26.90;15.13;;;;;;;4.35;100.00;95146.31;1034724;28;20026;-66
2024/03/02 00:33:46;;;;;;;24.08;14.95;;;;;;;4.34;100.00;95149.19;1034220;28;20438;-65
2024/03/02 00:34:17;;;;;;;28.02;15.13;;;;;;;4.33;100.00;95143.19;1032019;28;20376;-65
2024/03/02 00:34:47;;;;;;;27.50;14.45;;;;;;;4.32;100.00;95139.00;1034505;28;20680;-66
2024/03/02 00:35:23;;;;;;;21.83;13.82;;;;;;;4.31;100.00;95140.03;1036000;28;20398;-66
2024/03/02 00:35:53;;;;;;;24.13;14.52;;;;;;;4.31;100.00;95141.84;1037071;28;20497;-66
2024/03/02 00:36:27;;;;;;;23.13;13.93;;;;;;;4.31;100.00;95145.25;1038556;28;20252;-65
2024/03/02 00:36:59;;;;;;;24.85;14.25;;;;;;;4.29;100.00;95142.06;1038682;28;20045;-66
2024/03/02 00:37:30;;;;;;;23.02;14.25;;;;;;;4.29;100.00;95142.06;1040090;28;20810;-66
2024/03/02 00:38:07;;;;;;;26.75;14.07;;;;;;;4.29;100.00;95139.47;1043535;28;20255;-65
2024/03/02 00:38:50;;;;;;;26.52;13.95;;;;;;;4.28;100.00;95140.50;1043534;28;20567;-66
2024/03/02 00:39:20;;;;;;;28.08;14.93;;;;;;;4.29;100.00;95143.91;1039578;28;20671;-65
2024/03/02 00:39:51;;;;;;;26.00;13.55;;;;;;;4.29;100.00;95143.91;1040550;28;20263;-65
2024/03/02 00:40:21;;;;;;;25.85;14.07;;;;;;;4.28;100.00;95148.31;1043652;28;20025;-64
2024/03/02 00:40:52;;;;;;;26.17;15.52;;;;;;;4.28;100.00;95144.94;1039060;28;20017;-66
2024/03/02 00:41:23;;;;;;;26.40;14.88;;;;;;;4.27;100.00;95144.16;1039416;28;20076;-66
2024/03/02 00:41:53;;;;;;;23.45;13.98;;;;;;;4.27;100.00;95140.75;1031359;28;20387;-65
2024/03/02 00:42:24;;;;;;;25.60;14.13;;;;;;;4.28;100.00;95145.72;1033815;28;20293;-66
2024/03/02 00:42:56;;;;;;;26.77;14.90;;;;;;;4.28;100.00;95142.31;1039627;28;20076;-66
2024/03/02 00:43:42;;;;;;;25.67;14.52;;;;;;;4.26;100.00;95145.19;1039944;28;20112;-66
2024/03/02 00:44:13;;;;;;;25.65;13.80;;;;;;;4.27;100.00;95143.38;1043661;28;20750;-65
2024/03/02 00:44:43;;;;;;;25.65;14.98;;;;;;;4.24;100.00;95144.63;1043985;28;20267;-65
2024/03/02 00:45:14;;;;;;;27.38;14.60;;;;;;;4.24;100.00;95145.41;1041979;28;20029;-65
2024/03/02 00:45:44;;;;;;;27.42;14.85;;;;;;;4.22;100.00;95144.84;1044022;28;20025;-65
2024/03/02 00:46:18;;;;;;;27.17;14.73;;;;;;;4.25;100.00;95135.78;1042724;28;20033;-66
2024/03/02 00:46:49;;;;;;;27.00;13.55;;;;;;;4.23;100.00;95143.06;1039341;28;20030;-66
2024/03/02 00:47:19;;;;;;;26.25;14.73;;;;;;;4.23;100.00;95146.44;1043381;28;20930;-66
2024/03/02 00:47:50;;;;;;;24.13;13.45;;;;;;;4.23;100.00;95143.84;1043778;28;20017;-65
2024/03/02 00:48:20;;;;;;;26.05;14.02;;;;;;;4.24;100.00;95144.63;1042953;28;20025;-66
2024/03/02 00:48:54;;;;;;;26.83;14.68;;;;;;;4.24;100.00;95145.41;1038116;28;20026;-70
2024/03/02 00:49:26;;;;;;;23.70;13.73;;;;;;;4.21;100.00;95139.91;1039286;28;20030;-68
2024/03/02 00:49:56;;;;;;;25.45;13.77;;;;;;;4.21;100.00;95139.91;1039681;28;20264;-67
2024/03/02 00:50:26;;;;;;;26.35;15.23;;;;;;;4.22;100.00;95141.47;1040891;28;20030;-69
2024/03/02 00:50:57;;;;;;;23.38;14.57;;;;;;;4.21;100.00;95143.28;1042405;28;20029;-67
2024/03/02 00:51:29;;;;;;;25.67;14.73;;;;;;;4.21;100.00;95143.28;1042989;28;20974;-69
2024/03/02 00:51:59;;;;;;;27.27;14.73;;;;;;;4.21;100.00;95145.09;1042903;28;20080;-68
2024/03/02 00:52:30;;;;;;;25.73;13.93;;;;;;;4.21;100.00;95139.91;1038962;28;20272;-66
2024/03/02 00:53:01;;;;;;;27.38;14.80;;;;;;;4.20;100.00;95146.91;1042610;28;20047;-66
2024/03/02 00:53:32;;;;;;;25.23;13.82;;;;;;;4.20;100.00;95143.53;1042548;28;20370;-66
2024/03/02 00:54:07;;;;;;;30.70;15.25;;;;;;;4.09;100.00;95123.59;1042701;28;20271;-68
2024/03/02 00:54:38;;;;;;;27.98;14.38;;;;;;;4.22;100.00;95141.47;1041529;28;20260;-67
2024/03/02 00:55:08;;;;;;;25.23;14.25;;;;;;;4.22;100.00;95146.66;1038524;28;20743;-62
2024/03/02 00:55:44;;;;;;;22.67;13.23;;;;;;;4.21;100.00;95150.28;1039431;28;20048;-66
2024/03/02 00:56:14;;;;;;;24.67;13.55;;;;;;;4.20;100.00;95144.31;1039633;28;20569;-66
2024/03/02 00:56:44;;;;;;;21.58;13.45;;;;;;;4.22;100.00;95149.25;1039737;28;20268;-65
2024/03/02 00:57:15;;;;;;;26.15;14.30;;;;;;;4.19;100.00;95142.75;1039774;28;20734;-65
2024/03/02 00:57:45;;;;;;;24.30;14.35;;;;;;;4.22;100.00;95144.06;1039378;28;20029;-66
2024/03/02 00:58:16;;;;;;;21.67;12.68;;;;;;;4.23;100.00;95151.63;1039927;28;20038;-66
2024/03/02 00:58:47;;;;;;;26.33;13.98;;;;;;;4.21;100.00;95143.28;1039508;28;20057;-66
2024/03/02 00:59:17;;;;;;;25.25;14.30;;;;;;;4.22;100.00;95142.25;1039636;28;20796;-66
2024/03/02 00:59:48;;;;;;;23.42;13.05;;;;;;;4.24;100.00;95149.81;1039473;28;20439;-65
2024/03/02 01:00:19;;;;;;;26.67;13.80;;;;;;;4.24;100.00;95149.81;1036688;28;20022;-66
2024/03/02 01:00:50;;;;;;;27.23;14.50;;;;;;;4.24;100.00;95148.00;1038625;28;20056;-66
2024/03/02 01:01:20;;;;;;;22.83;14.25;;;;;;;4.23;100.00;95149.03;1038869;28;20080;-67
2024/03/02 01:01:51;;;;;;;27.35;13.52;;;;;;;4.22;100.00;95144.06;1043767;28;20017;-66
2024/03/02 01:02:22;;;;;;;25.58;13.93;;;;;;;4.22;100.00;95149.25;1039387;28;20104;-65
2024/03/02 01:02:52;;;;;;;21.67;14.05;;;;;;;4.22;100.00;95144.06;1039318;28;20287;-66
2024/03/02 01:03:24;;;;;;;26.98;14.30;;;;;;;4.21;100.00;95147.69;1039524;28;20037;-65
2024/03/02 01:03:54;;;;;;;28.17;14.38;;;;;;;4.22;100.00;95152.63;1035634;28;20125;-66
2024/03/02 01:04:25;;;;;;;25.58;13.55;;;;;;;4.24;100.00;95149.81;1037654;28;20167;-65
2024/03/02 01:04:55;;;;;;;26.75;13.80;;;;;;;4.23;100.00;95145.66;1039610;28;20021;-66
2024/03/02 01:05:25;;;;;;;26.85;13.93;;;;;;;4.23;100.00;95148.25;1035393;28;20045;-66
2024/03/02 01:05:56;;;;;;;24.48;13.38;;;;;;;4.23;100.00;95151.63;1039729;28;20029;-67
2024/03/02 01:06:26;;;;;;;22.15;13.57;;;;;;;4.23;100.00;95150.84;1043737;28;20029;-66
2024/03/02 01:06:58;;;;;;;27.95;14.45;;;;;;;4.23;100.00;95150.84;1043606;28;20079;-66
2024/03/02 01:07:29;;;;;;;26.10;14.07;;;;;;;4.22;100.00;95146.66;1044049;28;20119;-65
2024/03/02 01:07:59;;;;;;;25.65;14.57;;;;;;;4.21;100.00;95155.47;1043669;28;20259;-66
2024/03/02 01:08:30;;;;;;;25.17;13.43;;;;;;;4.20;100.00;95153.91;1043464;28;20028;-65
2024/03/02 01:09:00;;;;;;;28.50;14.57;;;;;;;4.22;100.00;95152.63;1043456;28;20487;-66
2024/03/02 01:09:30;;;;;;;25.85;14.07;;;;;;;4.22;100.00;95157.03;1043454;28;20060;-66
2024/03/02 01:10:01;;;;;;;25.20;13.52;;;;;;;4.22;100.00;95154.44;1043240;28;20018;-65
2024/03/02 01:10:31;;;;;;;23.92;12.88;;;;;;;4.21;100.00;95151.06;1042597;28;20024;-65
2024/03/02 01:11:03;;;;;;;23.98;13.73;;;;;;;4.19;100.00;95154.91;1043829;28;20380;-66
2024/03/02 01:11:33;;;;;;;22.38;13.40;;;;;;;4.20;100.00;95153.91;1043559;28;20016;-65
2024/03/02 01:12:04;;;;;;;25.70;13.75;;;;;;;4.19;100.00;95152.31;1043841;28;20017;-66
2024/03/02 01:12:35;;;;;;;24.92;13.60;;;;;;;4.20;100.00;95152.09;1043596;28;20013;-66
2024/03/02 01:13:05;;;;;;;27.00;14.02;;;;;;;4.21;100.00;95151.06;1043461;28;20047;-65
2024/03/02 01:13:36;;;;;;;24.42;13.25;;;;;;;4.20;100.00;95152.09;1044151;28;20079;-66
2024/03/02 01:14:06;;;;;;;29.27;13.73;;;;;;;4.18;100.00;95151.53;1043881;28;20107;-67
2024/03/02 01:14:37;;;;;;;24.60;14.35;;;;;;;4.20;100.00;95146.13;1043653;28;20017;-67
2024/03/02 01:15:08;;;;;;;25.88;13.95;;;;;;;4.20;100.00;95151.31;1039605;28;20545;-65
2024/03/02 01:15:38;;;;;;;26.85;14.15;;;;;;;4.19;100.00;95150.53;1039500;28;20025;-65
2024/03/02 01:16:09;;;;;;;25.42;13.10;;;;;;;4.22;100.00;95149.25;1039650;28;20013;-66
2024/03/02 01:16:39;;;;;;;19.80;12.98;;;;;;;4.20;100.00;95148.72;1043722;28;20033;-66
2024/03/02 01:17:09;;;;;;;25.35;13.63;;;;;;;4.22;100.00;95152.63;1043571;28;20369;-66
2024/03/02 01:17:40;;;;;;;27.23;13.38;;;;;;;4.22;100.00;95154.44;1043591;28;20013;-66
2024/03/02 01:18:10;;;;;;;27.00;14.18;;;;;;;4.19;100.00;95150.53;1039403;28;20688;-67
2024/03/02 01:18:41;;;;;;;23.15;13.60;;;;;;;4.20;100.00;95152.09;1039580;28;20017;-65
2024/03/02 01:19:12;;;;;;;24.33;13.30;;;;;;;4.20;100.00;95151.31;1042870;28;20528;-65
2024/03/02 01:19:42;;;;;;;26.25;14.02;;;;;;;4.20;100.00;95149.50;1042860;28;20100;-65
2024/03/02 01:20:12;;;;;;;25.40;13.50;;;;;;;4.21;100.00;95150.28;1043528;28;20013;-66
2024/03/02 01:20:43;;;;;;;25.60;14.27;;;;;;;4.21;100.00;95155.47;1043097;28;20044;-65
2024/03/02 01:21:14;;;;;;;30.55;13.85;;;;;;;4.20;100.00;95151.31;1043784;28;20017;-66
2024/03/02 01:21:44;;;;;;;28.08;13.55;;;;;;;4.22;100.00;95151.84;1043840;28;20025;-65
2024/03/02 01:22:15;;;;;;;24.77;13.73;;;;;;;4.20;100.00;95151.31;1043961;28;20020;-66
2024/03/02 01:22:45;;;;;;;24.10;13.52;;;;;;;4.22;100.00;95157.03;1043895;28;20017;-66
2024/03/02 01:23:16;;;;;;;27.35;13.48;;;;;;;4.19;100.00;95152.31;1043478;28;20025;-66
2024/03/02 01:23:46;;;;;;;22.23;13.40;;;;;;;4.20;100.00;95157.28;1043566;28;20029;-66
2024/03/02 01:24:17;;;;;;;21.05;13.10;;;;;;;4.21;100.00;95151.06;1039417;28;20119;-67
2024/03/02 01:24:47;;;;;;;29.98;13.73;;;;;;;4.22;100.00;95151.84;1039526;28;20028;-66
2024/03/02 01:25:17;;;;;;;23.63;13.60;;;;;;;4.22;100.00;95157.03;1043543;28;20024;-66
2024/03/02 01:25:48;;;;;;;25.70;13.23;;;;;;;4.22;100.00;95147.44;1043522;28;20025;-66
2024/03/02 01:26:18;;;;;;;22.35;13.55;;;;;;;4.22;100.00;95146.66;1043715;28;20047;-65
2024/03/02 01:26:49;;;;;;;24.15;13.32;;;;;;;4.23;100.00;95154.22;1043894;28;20024;-66
2024/03/02 01:27:19;;;;;;;23.48;14.07;;;;;;;4.23;100.00;95153.44;1043857;28;20048;-66
2024/03/02 01:27:50;;;;;;;26.77;13.60;;;;;;;4.21;100.00;95156.25;1043764;28;20016;-65
2024/03/02 01:28:20;;;;;;;23.88;13.55;;;;;;;4.24;100.00;95155.00;1043925;28;20013;-66
2024/03/02 01:28:51;;;;;;;24.65;14.15;;;;;;;4.23;100.00;95153.44;1043986;28;20021;-67
2024/03/02 01:29:21;;;;;;;25.15;13.93;;;;;;;4.21;100.00;95155.47;1043730;28;20769;-66
2024/03/02 01:29:52;;;;;;;24.40;13.68;;;;;;;4.24;100.00;95152.41;1043797;28;20040;-65
2024/03/02 01:30:22;;;;;;;24.05;14.90;;;;;;;4.23;100.00;95151.63;1043758;28;20090;-66
2024/03/02 01:30:53;;;;;;;24.85;12.35;;;;;;;4.23;100.00;95143.06;1043447;28;20026;-66
2024/03/02 01:31:23;;;;;;;27.40;14.05;;;;;;;4.23;100.00;95143.06;1043475;28;20488;-66
2024/03/02 01:31:54;;;;;;;24.00;13.48;;;;;;;4.23;100.00;95151.63;1043514;28;20353;-66
2024/03/02 01:32:24;;;;;;;24.08;13.88;;;;;;;4.23;100.00;95137.84;1043511;28;20677;-65
2024/03/02 01:32:55;;;;;;;29.80;14.30;;;;;;;4.24;100.00;95142.03;1039457;28;20029;-65
2024/03/02 01:33:25;;;;;;;23.85;14.07;;;;;;;4.22;100.00;95139.66;1041900;28;20038;-66
2024/03/02 01:33:56;;;;;;;25.92;13.52;;;;;;;4.20;100.00;95141.72;1032266;28;20045;-66
2024/03/02 01:34:26;;;;;;;25.95;13.45;;;;;;;4.23;100.00;95140.47;1033580;28;20117;-65
2024/03/02 01:34:57;;;;;;;24.98;13.40;;;;;;;4.22;100.00;95141.47;1035425;28;20022;-66
2024/03/02 01:35:27;;;;;;;22.80;13.40;;;;;;;4.21;100.00;95145.09;1037959;28;20034;-66
2024/03/02 01:35:58;;;;;;;25.25;13.07;;;;;;;4.21;100.00;95143.28;1044027;28;20431;-66
2024/03/02 01:36:28;;;;;;;25.70;14.38;;;;;;;4.23;100.00;95148.25;1043334;28;20231;-65
2024/03/02 01:36:58;;;;;;;27.70;14.60;;;;;;;4.23;100.00;95143.06;1043469;28;20029;-65
2024/03/02 01:37:29;;;;;;;24.80;13.82;;;;;;;4.21;100.00;95150.28;1043477;28;20400;-67
2024/03/02 01:38:00;;;;;;;27.05;14.65;;;;;;;4.19;100.00;95141.94;1043380;28;20017;-66
2024/03/02 01:38:31;;;;;;;23.20;13.32;;;;;;;4.19;100.00;95140.16;1043691;28;20051;-66
2024/03/02 01:39:01;;;;;;;21.67;12.95;;;;;;;4.19;100.00;95141.94;1043441;28;20040;-65
2024/03/02 01:39:32;;;;;;;26.67;15.05;;;;;;;4.21;100.00;95142.50;1043458;28;20017;-65
2024/03/02 01:40:02;;;;;;;23.70;13.25;;;;;;;4.20;100.00;95138.31;1043550;28;20025;-66
2024/03/02 01:40:36;;;;;;;24.30;14.63;;;;;;;4.21;100.00;95139.91;1042831;28;20024;-66
2024/03/02 01:41:07;;;;;;;23.30;13.70;;;;;;;4.17;100.00;95142.19;1043888;28;20088;-65
2024/03/02 01:41:37;;;;;;;23.58;13.68;;;;;;;4.17;100.00;95136.97;1043322;28;20282;-67
2024/03/02 01:42:07;;;;;;;22.83;13.30;;;;;;;4.19;100.00;95144.53;1043624;28;20020;-66
2024/03/02 01:42:38;;;;;;;24.83;13.65;;;;;;;4.18;100.00;95143.75;1043312;28;20024;-66
2024/03/02 01:43:09;;;;;;;26.33;13.82;;;;;;;4.17;100.00;95142.19;1039504;28;20029;-66
2024/03/02 01:43:39;;;;;;;25.73;13.52;;;;;;;4.17;100.00;95133.59;1043719;28;20028;-65
2024/03/02 01:44:10;;;;;;;27.38;14.52;;;;;;;4.18;100.00;95145.56;1043408;28;20055;-65
2024/03/02 01:44:40;;;;;;;25.92;14.10;;;;;;;4.17;100.00;95136.19;1043490;28;20724;-65
2024/03/02 01:45:11;;;;;;;27.98;14.63;;;;;;;4.18;100.00;95140.38;1043859;28;20468;-66
2024/03/02 01:45:41;;;;;;;25.50;13.73;;;;;;;4.14;100.00;95137.47;1043942;28;20025;-66
2024/03/02 01:46:12;;;;;;;23.88;13.57;;;;;;;4.15;100.00;95139.03;1043910;28;20554;-66
2024/03/02 01:46:42;;;;;;;23.67;13.55;;;;;;;4.16;100.00;95143.22;1043709;28;20020;-65
2024/03/02 01:47:13;;;;;;;25.83;13.80;;;;;;;4.17;100.00;95138.81;1043652;28;20032;-66
2024/03/02 01:47:43;;;;;;;25.48;14.13;;;;;;;4.17;100.00;95144.00;1040466;28;20075;-67
2024/03/02 01:48:14;;;;;;;23.83;13.73;;;;;;;4.17;100.00;95144.00;1039623;28;20446;-65
2024/03/02 01:48:44;;;;;;;22.95;13.57;;;;;;;4.14;100.00;95140.06;1041083;28;20082;-65
2024/03/02 01:49:14;;;;;;;22.77;13.98;;;;;;;4.15;100.00;95141.63;1040144;28;20029;-65
2024/03/02 01:49:45;;;;;;;25.48;13.80;;;;;;;4.15;100.00;95135.66;1043616;28;20025;-65
2024/03/02 01:50:16;;;;;;;24.15;13.23;;;;;;;4.12;100.00;95136.09;1042898;28;20447;-66
2024/03/02 01:50:46;;;;;;;25.63;13.52;;;;;;;4.11;100.00;95135.31;1039250;28;20025;-66
2024/03/02 01:51:17;;;;;;;23.70;13.50;;;;;;;4.10;100.00;95138.19;1040848;28;20024;-66
2024/03/02 01:51:47;;;;;;;24.20;13.57;;;;;;;4.11;100.00;95139.75;1044092;28;20488;-66
2024/03/02 01:52:17;;;;;;;24.90;14.18;;;;;;;4.11;100.00;95134.53;1041314;28;20037;-65
2024/03/02 01:52:48;;;;;;;27.33;13.60;;;;;;;4.11;100.00;95134.53;1043765;28;20020;-65
2024/03/02 01:53:19;;;;;;;27.27;14.30;;;;;;;4.10;100.00;95133.75;1043878;28;20028;-65
2024/03/02 01:53:49;;;;;;;25.42;13.68;;;;;;;4.12;100.00;95133.50;1041326;28;20017;-66
2024/03/02 01:54:20;;;;;;;22.65;13.80;;;;;;;4.11;100.00;95134.53;1036705;28;20013;-66
2024/03/02 01:54:50;;;;;;;25.73;14.35;;;;;;;4.10;100.00;95132.97;1038511;28;20018;-65
2024/03/02 01:55:20;;;;;;;25.42;14.35;;;;;;;4.11;100.00;95134.53;1038276;28;20014;-65
2024/03/02 01:55:51;;;;;;;22.77;13.85;;;;;;;4.08;100.00;95130.59;1039459;28;20512;-64
2024/03/02 01:56:22;;;;;;;26.33;14.45;;;;;;;4.10;100.00;95132.97;1041370;28;20060;-66
2024/03/02 01:56:52;;;;;;;28.13;14.00;;;;;;;4.11;100.00;95129.34;1043703;28;20452;-65
2024/03/02 01:57:23;;;;;;;24.25;13.88;;;;;;;4.07;100.00;95128.25;1042166;28;20032;-65
2024/03/02 01:57:54;;;;;;;21.95;13.63;;;;;;;4.08;100.00;95128.00;1043839;28;20403;-67
2024/03/02 01:58:24;;;;;;;24.15;13.90;;;;;;;4.08;100.00;95129.81;1043677;28;20033;-65
2024/03/02 01:58:54;;;;;;;24.48;13.85;;;;;;;4.07;100.00;95128.25;1041674;28;20021;-65
2024/03/02 01:59:25;;;;;;;24.70;15.18;;;;;;;4.07;100.00;95123.84;1041844;28;20803;-65
2024/03/02 01:59:55;;;;;;;27.05;14.25;;;;;;;4.09;100.00;95132.19;1043794;28;20048;-66
2024/03/02 02:00:26;;;;;;;26.08;13.40;;;;;;;4.08;100.00;95130.59;1043065;28;20063;-65
2024/03/02 02:00:56;;;;;;;25.88;14.73;;;;;;;4.08;100.00;95124.63;1039020;28;20030;-66
2024/03/02 02:01:27;;;;;;;23.48;13.82;;;;;;;4.09;100.00;95127.00;1042142;28;20022;-66
2024/03/02 02:01:57;;;;;;;25.73;14.32;;;;;;;4.08;100.00;95129.81;1043844;28;20028;-65
2024/03/02 02:02:28;;;;;;;25.27;14.27;;;;;;;4.08;100.00;95125.41;1042816;28;20026;-65
2024/03/02 02:02:59;;;;;;;26.88;14.63;;;;;;;4.07;100.00;95128.25;1043752;28;20377;-65
2024/03/02 02:03:29;;;;;;;28.55;15.45;;;;;;;4.06;100.00;95127.47;1043598;28;20028;-66
2024/03/02 02:04:00;;;;;;;24.00;14.23;;;;;;;4.10;100.00;95127.78;1041766;28;20017;-66
2024/03/02 02:04:30;;;;;;;26.35;15.25;;;;;;;4.08;100.00;95119.44;1042600;28;20043;-65
2024/03/02 02:05:01;;;;;;;27.98;15.00;;;;;;;4.09;100.00;95127.00;1043836;28;20017;-65
2024/03/02 02:05:31;;;;;;;28.77;15.30;;;;;;;4.09;100.00;95126.19;1042938;28;20001;-65
2024/03/02 02:06:02;;;;;;;26.17;15.13;;;;;;;4.09;100.00;95126.19;1039659;28;20009;-66
2024/03/02 02:06:32;;;;;;;25.05;14.95;;;;;;;4.07;100.00;95118.66;1042883;28;20017;-65
2024/03/02 02:07:03;;;;;;;27.02;15.05;;;;;;;4.08;100.00;95125.41;1043352;28;20009;-65
2024/03/02 02:07:34;;;;;;;26.58;15.75;;;;;;;4.09;100.00;95127.00;1039796;28;20034;-66
2024/03/02 02:08:05;;;;;;;26.13;14.63;;;;;;;4.08;100.00;95125.41;1031198;28;20497;-67
2024/03/02 02:08:37;;;;;;;26.63;14.73;;;;;;;4.09;100.00;95128.78;1031340;28;20326;-67
2024/03/02 02:09:08;;;;;;;23.58;14.63;;;;;;;4.10;100.00;95117.41;1035208;28;20109;-66
2024/03/02 02:09:38;;;;;;;26.08;14.40;;;;;;;4.10;100.00;95122.59;1039433;28;20628;-66
2024/03/02 02:10:10;;;;;;;25.88;14.10;;;;;;;4.11;100.00;95124.94;1042347;28;20021;-65
2024/03/02 02:10:40;;;;;;;29.50;14.50;;;;;;;4.10;100.00;95122.59;1038718;28;20021;-66
2024/03/02 02:11:11;;;;;;;23.55;14.27;;;;;;;4.09;100.00;95121.81;1039121;28;20017;-65
2024/03/02 02:11:41;;;;;;;27.13;14.73;;;;;;;4.09;100.00;95126.19;1039221;28;20096;-64
2024/03/02 02:12:11;;;;;;;26.92;15.30;;;;;;;4.07;100.00;95118.66;1039455;28;20025;-66
2024/03/02 02:12:42;;;;;;;25.90;13.68;;;;;;;4.09;100.00;95121.81;1043333;28;20029;-65
2024/03/02 02:13:12;;;;;;;24.25;13.35;;;;;;;4.08;100.00;95120.22;1043484;28;20064;-65
2024/03/02 02:13:43;;;;;;;28.20;14.85;;;;;;;3.99;100.00;95106.88;1043270;28;20063;-65
2024/03/02 02:14:14;;;;;;;25.00;14.73;;;;;;;4.09;100.00;95119.22;1039247;28;20049;-66
2024/03/02 02:14:51;;;;;;;25.42;15.20;;;;;;;4.10;100.00;95125.97;1039412;28;20029;-65
2024/03/02 02:15:28;;;;;;;24.88;13.82;;;;;;;4.11;100.00;95124.16;1039259;28;20021;-64
2024/03/02 02:16:08;;;;;;;22.98;13.85;;;;;;;4.10;100.00;95122.59;1037095;28;20113;-66
2024/03/02 02:16:38;;;;;;;28.95;14.48;;;;;;;4.10;100.00;95118.19;1039119;28;20441;-67
2024/03/02 02:17:08;;;;;;;24.05;13.60;;;;;;;4.09;100.00;95121.00;1031037;28;20140;-66
2024/03/02 02:17:39;;;;;;;27.95;14.98;;;;;;;4.06;100.00;95117.09;1032478;28;20018;-66
2024/03/02 02:18:09;;;;;;;27.63;15.18;;;;;;;4.08;100.00;95116.84;1035002;28;20033;-65
2024/03/02 02:18:40;;;;;;;25.20;14.23;;;;;;;4.09;100.00;95113.22;1039434;28;20040;-69
2024/03/02 02:19:10;;;;;;;24.23;14.30;;;;;;;4.10;100.00;95118.19;1040434;28;20056;-65
2024/03/02 02:19:41;;;;;;;27.33;14.90;;;;;;;4.07;100.00;95113.47;1043253;28;20017;-66
2024/03/02 02:20:11;;;;;;;30.50;15.07;;;;;;;4.10;100.00;95113.00;1043405;28;20033;-66
2024/03/02 02:20:42;;;;;;;23.38;13.93;;;;;;;4.11;100.00;95118.97;1038546;28;20037;-66
2024/03/02 02:21:12;;;;;;;25.70;14.68;;;;;;;4.09;100.00;95115.81;1039079;28;20041;-66
2024/03/02 02:21:43;;;;;;;27.98;14.45;;;;;;;4.09;100.00;95116.63;1039408;28;20049;-65
2024/03/02 02:22:14;;;;;;;25.48;14.38;;;;;;;4.11;100.00;95116.38;1039670;28;20025;-66
2024/03/02 02:23:04;;;;;;;28.25;14.00;;;;;;;4.10;100.00;95112.22;1043718;28;20020;-67
2024/03/02 02:23:34;;;;;;;24.38;13.20;;;;;;;4.07;100.00;95117.88;1042959;28;20016;-66
2024/03/02 02:24:05;;;;;;;24.50;13.60;;;;;;;4.09;100.00;95115.81;1042748;28;20036;-64